createdAt,value
2022-10-29T00:01:08.517Z,101842.81
2022-10-29T00:03:41.392Z,101836.66
2022-10-29T00:06:10.608Z,101825.25
2022-10-29T00:08:38.588Z,101835.28
2022-10-29T00:11:09.388Z,101832.81
2022-10-29T00:13:36.862Z,101838.66
2022-10-29T00:16:05.273Z,101835.31
2022-10-29T00:18:32.412Z,101823.31
2022-10-29T00:21:06.344Z,101837.75
2022-10-29T00:23:33.700Z,101837.66
2022-10-29T00:26:01.362Z,101831.00
2022-10-29T00:28:28.677Z,101840.78
2022-10-29T00:30:55.827Z,101846.81
2022-10-29T00:33:22.914Z,101846.34
2022-10-29T00:36:00.483Z,101856.19
2022-10-29T00:38:27.936Z,101865.84
2022-10-29T00:40:55.519Z,101862.72
2022-10-29T00:43:23.931Z,101866.72
2022-10-29T00:46:03.249Z,101868.00
2022-10-29T00:48:31.843Z,101865.97
2022-10-29T00:51:00.746Z,101876.63
2022-10-29T00:53:30.742Z,101877.00
2022-10-29T00:55:59.086Z,101876.81
2022-10-29T00:58:26.968Z,101874.16
2022-10-29T01:00:53.904Z,101882.88
2022-10-29T01:03:20.783Z,101886.19
2022-10-29T01:05:48.452Z,101888.66
2022-10-29T01:08:15.668Z,101892.78
2022-10-29T01:10:42.561Z,101889.44
2022-10-29T01:13:12.785Z,101896.50
2022-10-29T01:15:57.762Z,101895.94
2022-10-29T01:18:35.860Z,101899.13
2022-10-29T01:21:05.859Z,101900.91
2022-10-29T01:23:56.029Z,101918.13
2022-10-29T01:26:34.108Z,101900.31
2022-10-29T01:29:04.300Z,101903.09
2022-10-29T01:31:36.668Z,101900.13
2022-10-29T01:34:13.192Z,101903.50
2022-10-29T01:36:56.443Z,101907.50
2022-10-29T01:39:30.427Z,101906.38
2022-10-29T01:42:11.272Z,101903.09
2022-10-29T01:44:41.329Z,101901.66
2022-10-29T01:47:21.202Z,101910.53
2022-10-29T01:49:51.779Z,101907.13
2022-10-29T01:52:21.367Z,101908.78
2022-10-29T01:54:48.895Z,101907.28
2022-10-29T01:57:31.023Z,101905.78
2022-10-29T02:00:00.271Z,101916.63
2022-10-29T02:02:52.392Z,101910.78
2022-10-29T02:05:27.640Z,101910.88
2022-10-29T02:07:59.495Z,101907.53
2022-10-29T02:10:33.878Z,101928.56
2022-10-29T02:13:01.118Z,101935.09
2022-10-29T02:15:36.407Z,101934.22
2022-10-29T02:18:05.135Z,101930.56
2022-10-29T02:20:32.539Z,101930.75
2022-10-29T02:22:59.528Z,101943.31
2022-10-29T02:25:27.040Z,101935.81
2022-10-29T02:27:54.259Z,101933.44
2022-10-29T02:30:21.310Z,101936.59
2022-10-29T02:32:48.463Z,101941.63
2022-10-29T02:35:15.243Z,101936.22
2022-10-29T02:37:42.188Z,101945.03
2022-10-29T02:40:09.619Z,101943.41
2022-10-29T02:42:36.600Z,101952.34
2022-10-29T02:45:03.729Z,101948.00
2022-10-29T02:47:31.035Z,101950.41
2022-10-29T02:49:57.798Z,101951.78
2022-10-29T02:52:24.879Z,101948.59
2022-10-29T02:54:51.993Z,101953.28
2022-10-29T02:57:19.121Z,101954.03
2022-10-29T02:59:45.982Z,101954.13
2022-10-29T03:02:13.316Z,101951.72
2022-10-29T03:04:41.404Z,101960.31
2022-10-29T03:07:08.267Z,101964.13
2022-10-29T03:09:35.318Z,101961.88
2022-10-29T03:12:02.256Z,101967.22
2022-10-29T03:14:29.038Z,101974.34
2022-10-29T03:16:56.155Z,101978.44
2022-10-29T03:19:23.103Z,101979.16
2022-10-29T03:21:49.975Z,101969.50
2022-10-29T03:24:17.031Z,101973.06
2022-10-29T03:26:43.826Z,101975.53
2022-10-29T03:29:10.773Z,101969.75
2022-10-29T03:31:38.026Z,101966.94
2022-10-29T03:34:04.859Z,101967.88
2022-10-29T03:36:31.717Z,101965.63
2022-10-29T03:38:58.970Z,101967.34
2022-10-29T03:41:25.769Z,101973.06
2022-10-29T03:43:52.714Z,101967.38
2022-10-29T03:46:20.157Z,101977.25
2022-10-29T03:48:49.375Z,101974.59
2022-10-29T03:51:16.239Z,101972.56
2022-10-29T03:53:43.279Z,101982.78
2022-10-29T03:56:10.720Z,101981.63
2022-10-29T03:58:37.892Z,101974.31
2022-10-29T04:01:05.974Z,101987.19
2022-10-29T04:03:33.912Z,101981.66
2022-10-29T04:06:02.356Z,101987.34
2022-10-29T04:08:29.635Z,101984.53
2022-10-29T04:10:56.703Z,101983.91
2022-10-29T04:13:23.818Z,101993.81
2022-10-29T04:15:53.716Z,101996.78
2022-10-29T04:18:20.568Z,102001.69
2022-10-29T04:22:22.909Z,102001.97
2022-10-29T04:29:08.525Z,102008.09
2022-10-29T04:31:36.195Z,102003.56
2022-10-29T04:34:03.352Z,102007.88
2022-10-29T04:36:30.206Z,102006.56
2022-10-29T04:38:57.200Z,102003.84
2022-10-29T04:41:24.093Z,102003.78
2022-10-29T04:43:50.977Z,102001.56
2022-10-29T04:46:18.031Z,101993.91
2022-10-29T04:48:44.967Z,102001.13
2022-10-29T04:51:22.416Z,101993.69
2022-10-29T04:53:49.567Z,101999.97
2022-10-29T04:56:16.793Z,101991.97
2022-10-29T04:58:43.735Z,101988.41
2022-10-29T05:01:11.070Z,101991.03
2022-10-29T05:03:38.103Z,101991.88
2022-10-29T05:06:05.664Z,101992.09
2022-10-29T05:08:32.740Z,101986.16
2022-10-29T05:11:06.229Z,101997.47
2022-10-29T05:13:33.426Z,101990.41
2022-10-29T05:16:00.632Z,101989.78
2022-10-29T05:18:27.622Z,101993.47
2022-10-29T05:20:55.012Z,101996.19
2022-10-29T05:23:21.924Z,102003.22
2022-10-29T05:25:51.347Z,102010.56
2022-10-29T05:28:19.575Z,102009.00
2022-10-29T05:30:47.505Z,102000.31
2022-10-29T05:33:15.812Z,102009.75
2022-10-29T05:35:42.924Z,102014.63
2022-10-29T05:38:10.476Z,102016.25
2022-10-29T05:40:37.803Z,102018.34
2022-10-29T05:43:04.595Z,102035.94
2022-10-29T05:45:31.968Z,102022.63
2022-10-29T05:47:59.727Z,102018.06
2022-10-29T05:50:27.246Z,102005.41
2022-10-29T05:52:58.422Z,102004.19
2022-10-29T05:55:26.769Z,102003.28
2022-10-29T05:58:04.116Z,102004.25
2022-10-29T06:00:32.406Z,102013.28
2022-10-29T06:02:59.549Z,102004.25
2022-10-29T06:05:27.043Z,102007.66
2022-10-29T06:07:57.925Z,102016.63
2022-10-29T06:10:26.028Z,102016.50
2022-10-29T06:12:53.055Z,102029.94
2022-10-29T06:15:20.817Z,102026.63
2022-10-29T06:17:48.261Z,102026.31
2022-10-29T06:20:16.785Z,102027.75
2022-10-29T06:22:43.594Z,102020.97
2022-10-29T06:25:10.642Z,102018.94
2022-10-29T06:27:38.727Z,102011.72
2022-10-29T06:30:06.053Z,102009.66
2022-10-29T06:32:32.891Z,102016.00
2022-10-29T06:34:59.999Z,102025.63
2022-10-29T06:37:26.931Z,102044.97
2022-10-29T06:39:54.011Z,102047.94
2022-10-29T06:42:20.892Z,102044.31
2022-10-29T06:44:47.919Z,102042.47
2022-10-29T06:47:14.998Z,102040.53
2022-10-29T06:49:42.091Z,102045.50
2022-10-29T06:52:08.942Z,102038.09
2022-10-29T06:54:35.805Z,102052.41
2022-10-29T06:57:02.966Z,102055.56
2022-10-29T06:59:30.054Z,102069.91
2022-10-29T07:01:57.161Z,102070.84
2022-10-29T07:04:24.151Z,102074.94
2022-10-29T07:06:51.097Z,102066.69
2022-10-29T07:09:18.299Z,102068.00
2022-10-29T07:11:45.172Z,102066.00
2022-10-29T07:14:12.212Z,102068.59
2022-10-29T07:16:39.094Z,102066.41
2022-10-29T07:19:06.229Z,102067.28
2022-10-29T07:21:33.107Z,102066.41
2022-10-29T07:23:59.925Z,102053.47
2022-10-29T07:26:27.136Z,102054.22
2022-10-29T07:28:57.887Z,102045.47
2022-10-29T07:31:25.051Z,102045.06
2022-10-29T07:33:51.983Z,102051.66
2022-10-29T07:36:19.218Z,102048.09
2022-10-29T07:38:46.688Z,102054.44
2022-10-29T07:41:14.051Z,102061.50
2022-10-29T07:43:41.363Z,102061.78
2022-10-29T07:46:08.484Z,102071.69
2022-10-29T07:48:35.270Z,102080.69
2022-10-29T07:51:02.647Z,102081.38
2022-10-29T07:53:31.516Z,102085.44
2022-10-29T07:55:59.115Z,102088.38
2022-10-29T07:58:26.356Z,102095.28
2022-10-29T08:00:53.655Z,102087.47
2022-10-29T08:03:21.276Z,102089.63
2022-10-29T08:05:56.234Z,102089.97
2022-10-29T08:08:24.094Z,102089.09
2022-10-29T08:10:51.218Z,102094.00
2022-10-29T08:13:18.114Z,102097.50
2022-10-29T08:15:48.310Z,102098.41
2022-10-29T08:18:16.187Z,102100.44
2022-10-29T08:20:43.211Z,102103.53
2022-10-29T08:23:10.567Z,102094.50
2022-10-29T08:25:41.619Z,102100.88
2022-10-29T08:28:10.546Z,102091.56
2022-10-29T08:30:37.916Z,102097.34
2022-10-29T08:33:05.654Z,102097.97
2022-10-29T08:35:33.078Z,102103.63
2022-10-29T08:38:00.151Z,102107.78
2022-10-29T08:40:50.223Z,102105.31
2022-10-29T08:43:29.474Z,102107.94
2022-10-29T08:45:57.229Z,102108.66
2022-10-29T08:48:30.461Z,102099.06
2022-10-29T08:51:04.912Z,102098.09
2022-10-29T08:53:40.587Z,102092.41
2022-10-29T08:56:12.531Z,102097.84
2022-10-29T08:58:59.860Z,102093.78
2022-10-29T09:01:27.063Z,102107.06
2022-10-29T09:03:54.749Z,102112.78
2022-10-29T09:06:24.723Z,102116.56
2022-10-29T09:08:58.653Z,102117.63
2022-10-29T09:11:37.539Z,102121.84
2022-10-29T09:14:22.923Z,102119.03
2022-10-29T09:16:57.483Z,102122.13
2022-10-29T09:19:36.472Z,102132.44
2022-10-29T09:22:21.916Z,102122.44
2022-10-29T09:25:09.276Z,102124.75
2022-10-29T09:27:36.103Z,102125.03
2022-10-29T09:30:06.993Z,102117.13
2022-10-29T09:32:56.903Z,102116.00
2022-10-29T09:35:37.256Z,102114.09
2022-10-29T09:38:09.095Z,102108.16
2022-10-29T09:40:37.846Z,102113.03
2022-10-29T09:43:27.835Z,102119.44
2022-10-29T09:46:13.422Z,102123.91
2022-10-29T09:49:02.488Z,102131.03
2022-10-29T09:51:32.763Z,102120.00
2022-10-29T09:53:59.794Z,102118.31
2022-10-29T09:56:26.698Z,102124.09
2022-10-29T09:58:58.256Z,102121.56
2022-10-29T10:01:25.098Z,102112.44
2022-10-29T10:03:57.678Z,102111.44
2022-10-29T10:06:24.476Z,102125.88
2022-10-29T10:08:54.580Z,102115.25
2022-10-29T10:11:21.803Z,102116.63
2022-10-29T10:13:59.409Z,102113.41
2022-10-29T10:16:30.231Z,102114.06
2022-10-29T10:18:57.352Z,102111.41
2022-10-29T10:21:31.567Z,102113.09
2022-10-29T10:23:59.779Z,102114.69
2022-10-29T10:26:26.627Z,102105.84
2022-10-29T10:29:12.443Z,102106.81
2022-10-29T10:31:40.224Z,102098.94
2022-10-29T10:34:21.201Z,102093.16
2022-10-29T10:36:55.507Z,102084.56
2022-10-29T10:39:35.372Z,102080.03
2022-10-29T10:42:04.456Z,102074.09
2022-10-29T10:44:32.075Z,102085.03
2022-10-29T10:47:05.103Z,102077.53
2022-10-29T10:49:34.036Z,102080.59
2022-10-29T10:52:04.151Z,102081.81
2022-10-29T10:54:44.805Z,102088.84
2022-10-29T10:57:11.972Z,102094.41
2022-10-29T10:59:38.831Z,102094.59
2022-10-29T11:02:08.874Z,102092.38
2022-10-29T11:04:39.184Z,102098.59
2022-10-29T11:07:08.272Z,102098.78
2022-10-29T11:09:40.494Z,102094.97
2022-10-29T11:12:24.049Z,102090.47
2022-10-29T11:14:53.919Z,102086.22
2022-10-29T11:17:23.968Z,102069.94
2022-10-29T11:19:52.351Z,102060.88
2022-10-29T11:22:22.270Z,102060.06
2022-10-29T11:25:09.371Z,102058.59
2022-10-29T11:27:48.151Z,102063.31
2022-10-29T11:30:16.043Z,102061.13
2022-10-29T11:32:52.394Z,102060.53
2022-10-29T11:35:28.456Z,102058.94
2022-10-29T11:38:24.858Z,102065.06
2022-10-29T11:40:58.829Z,102064.25
2022-10-29T11:43:26.054Z,102056.78
2022-10-29T11:46:09.150Z,102056.44
2022-10-29T11:49:04.216Z,102050.81
2022-10-29T11:51:31.011Z,102049.00
2022-10-29T11:54:07.076Z,102048.41
2022-10-29T11:56:33.869Z,102053.22
2022-10-29T11:59:00.964Z,102045.00
2022-10-29T12:01:36.750Z,102046.97
2022-10-29T12:04:24.238Z,102040.59
2022-10-29T12:06:55.012Z,102029.59
2022-10-29T12:09:37.573Z,102038.66
2022-10-29T12:12:07.452Z,102034.28
2022-10-29T12:14:44.478Z,102013.78
2022-10-29T12:17:46.904Z,102016.25
2022-10-29T12:20:26.820Z,102009.31
2022-10-29T12:23:05.013Z,102010.28
2022-10-29T12:25:55.942Z,102007.16
2022-10-29T12:28:32.767Z,101996.75
2022-10-29T12:30:59.764Z,101999.28
2022-10-29T12:33:48.530Z,101987.50
2022-10-29T12:36:21.564Z,101992.88
2022-10-29T12:38:54.815Z,101981.47
2022-10-29T12:41:51.347Z,101978.16
2022-10-29T12:44:34.948Z,101972.75
2022-10-29T12:47:07.684Z,101975.97
2022-10-29T12:49:34.559Z,101971.16
2022-10-29T12:52:10.507Z,101969.38
2022-10-29T12:54:37.771Z,101970.72
2022-10-29T12:57:13.774Z,101969.50
2022-10-29T12:59:42.115Z,101973.88
2022-10-29T13:02:27.653Z,101978.00
2022-10-29T13:05:09.727Z,101981.16
2022-10-29T13:07:38.121Z,101975.78
2022-10-29T13:10:28.808Z,101971.56
2022-10-29T13:13:01.322Z,101978.00
2022-10-29T13:15:37.451Z,101970.13
2022-10-29T13:18:18.147Z,101974.13
2022-10-29T13:20:49.363Z,101968.19
2022-10-29T13:23:22.209Z,101969.56
2022-10-29T13:25:50.424Z,101968.75
2022-10-29T13:28:17.340Z,101967.25
2022-10-29T13:30:45.344Z,101971.97
2022-10-29T13:33:21.971Z,101965.28
2022-10-29T13:35:56.606Z,101958.50
2022-10-29T13:38:57.879Z,101969.63
2022-10-29T13:41:48.497Z,101956.19
2022-10-29T13:44:21.710Z,101956.03
2022-10-29T13:47:05.251Z,101952.25
2022-10-29T13:49:45.398Z,101950.88
2022-10-29T13:52:15.775Z,101948.56
2022-10-29T13:54:49.205Z,101956.41
2022-10-29T13:57:39.310Z,101965.91
2022-10-29T14:00:08.564Z,101968.16
2022-10-29T14:02:39.578Z,101962.44
2022-10-29T14:05:06.847Z,101966.28
2022-10-29T14:07:46.186Z,101963.13
2022-10-29T14:10:18.508Z,101960.78
2022-10-29T14:12:47.416Z,101953.31
2022-10-29T14:15:15.159Z,101946.06
2022-10-29T14:17:42.457Z,101951.28
2022-10-29T14:20:21.887Z,101954.56
2022-10-29T14:22:48.907Z,101950.72
2022-10-29T14:25:25.150Z,101947.31
2022-10-29T14:28:09.459Z,101934.88
2022-10-29T14:30:36.679Z,101935.84
2022-10-29T14:33:16.956Z,101935.31
2022-10-29T14:35:44.427Z,101926.13
2022-10-29T14:38:12.665Z,101930.69
2022-10-29T14:40:40.195Z,101929.50
2022-10-29T14:43:07.257Z,101933.75
2022-10-29T14:45:34.123Z,101935.88
2022-10-29T14:48:03.552Z,101941.31
2022-10-29T14:50:31.101Z,101945.91
2022-10-29T14:53:03.891Z,101942.59
2022-10-29T14:55:35.588Z,101938.50
2022-10-29T14:58:13.676Z,101940.75
2022-10-29T15:00:52.029Z,101944.91
2022-10-29T15:03:23.645Z,101943.25
2022-10-29T15:05:51.744Z,101936.06
2022-10-29T15:08:30.889Z,101932.75
2022-10-29T15:10:59.413Z,101931.41
2022-10-29T15:13:27.490Z,101947.22
2022-10-29T15:15:57.075Z,101938.06
2022-10-29T15:18:25.191Z,101930.53
2022-10-29T15:20:54.793Z,101927.75
2022-10-29T15:23:30.019Z,101931.25
2022-10-29T15:26:02.390Z,101926.69
2022-10-29T15:28:31.030Z,101928.91
2022-10-29T15:31:01.488Z,101923.28
2022-10-29T15:33:29.356Z,101936.41
2022-10-29T15:35:58.688Z,101932.47
2022-10-29T15:38:52.257Z,101939.16
2022-10-29T15:41:20.001Z,101939.16
2022-10-29T15:43:57.520Z,101938.91
2022-10-29T15:46:27.576Z,101931.56
2022-10-29T15:48:54.932Z,101944.28
2022-10-29T15:51:29.152Z,101936.91
2022-10-29T15:53:57.351Z,101932.84
2022-10-29T15:56:25.004Z,101925.69
2022-10-29T15:58:53.238Z,101934.97
2022-10-29T16:01:20.305Z,101927.59
2022-10-29T16:03:47.423Z,101932.97
2022-10-29T16:06:15.615Z,101927.53
2022-10-29T16:08:45.588Z,101929.19
2022-10-29T16:11:13.886Z,101935.63
2022-10-29T16:13:41.124Z,101935.94
2022-10-29T16:16:16.108Z,101926.50
2022-10-29T16:18:43.838Z,101934.25
2022-10-29T16:21:13.176Z,101941.31
2022-10-29T16:23:40.729Z,101928.56
2022-10-29T16:26:09.641Z,101936.31
2022-10-29T16:28:36.832Z,101933.22
2022-10-29T16:31:03.844Z,101938.41
2022-10-29T16:33:31.150Z,101935.66
2022-10-29T16:35:58.127Z,101940.00
2022-10-29T16:38:25.383Z,101938.31
2022-10-29T16:40:52.273Z,101946.91
2022-10-29T16:43:19.614Z,101943.31
2022-10-29T16:45:46.625Z,101940.66
2022-10-29T16:48:13.602Z,101938.88
2022-10-29T16:50:40.979Z,101938.13
2022-10-29T16:53:10.373Z,101948.91
2022-10-29T16:55:38.253Z,101946.44
2022-10-29T16:58:15.628Z,101948.72
2022-10-29T17:00:42.739Z,101948.81
2022-10-29T17:03:12.519Z,101948.63
2022-10-29T17:05:41.252Z,101948.03
2022-10-29T17:08:08.526Z,101948.03
2022-10-29T17:10:36.704Z,101944.75
2022-10-29T17:13:03.793Z,101944.09
2022-10-29T17:15:30.755Z,101948.50
2022-10-29T17:17:58.646Z,101934.88
2022-10-29T17:20:25.842Z,101941.84
2022-10-29T17:22:53.017Z,101934.19
2022-10-29T17:25:20.622Z,101923.63
2022-10-29T17:27:47.637Z,101921.53
2022-10-29T17:30:14.881Z,101924.75
2022-10-29T17:32:41.842Z,101915.00
2022-10-29T17:35:09.316Z,101920.09
2022-10-29T17:37:36.427Z,101920.13
2022-10-29T17:40:07.921Z,101920.56
2022-10-29T17:42:35.778Z,101915.88
2022-10-29T17:45:02.868Z,101921.81
2022-10-29T17:47:30.500Z,101926.09
2022-10-29T17:49:57.668Z,101927.59
2022-10-29T17:52:24.808Z,101935.34
2022-10-29T17:54:51.819Z,101928.44
2022-10-29T17:57:18.700Z,101934.38
2022-10-29T17:59:45.838Z,101920.22
2022-10-29T18:02:12.789Z,101917.94
2022-10-29T18:04:40.062Z,101923.44
2022-10-29T18:07:07.187Z,101923.53
2022-10-29T18:09:34.559Z,101927.94
2022-10-29T18:12:01.525Z,101938.53
2022-10-29T18:14:28.487Z,101931.84
2022-10-29T18:16:55.576Z,101932.03
2022-10-29T18:19:23.960Z,101935.34
2022-10-29T18:21:51.012Z,101932.59
2022-10-29T18:24:19.461Z,101942.53
2022-10-29T18:26:49.357Z,101936.34
2022-10-29T18:29:16.512Z,101947.81
2022-10-29T18:31:45.923Z,101942.63
2022-10-29T18:34:14.920Z,101939.28
2022-10-29T18:36:43.155Z,101945.97
2022-10-29T18:39:10.713Z,101947.03
2022-10-29T18:41:37.674Z,101940.59
2022-10-29T18:44:04.739Z,101934.41
2022-10-29T18:46:32.262Z,101934.22
2022-10-29T18:49:00.232Z,101933.13
2022-10-29T18:51:31.031Z,101921.78
2022-10-29T18:53:59.250Z,101924.13
2022-10-29T18:56:27.371Z,101931.75
2022-10-29T18:58:55.903Z,101944.19
2022-10-29T19:01:24.612Z,101932.09
2022-10-29T19:03:55.436Z,101921.38
2022-10-29T19:06:23.461Z,101925.31
2022-10-29T19:08:51.194Z,101914.03
2022-10-29T19:11:19.678Z,101919.03
2022-10-29T19:13:50.597Z,101914.56
2022-10-29T19:16:17.411Z,101914.41
2022-10-29T19:18:44.609Z,101919.03
2022-10-29T19:21:12.887Z,101915.94
2022-10-29T19:23:40.145Z,101913.13
2022-10-29T19:26:11.560Z,101913.91
2022-10-29T19:28:39.221Z,101912.19
2022-10-29T19:31:07.511Z,101907.84
2022-10-29T19:33:34.914Z,101904.38
2022-10-29T19:36:02.180Z,101903.44
2022-10-29T19:38:29.382Z,101900.00
2022-10-29T19:40:57.267Z,101895.00
2022-10-29T19:43:24.639Z,101897.72
2022-10-29T19:45:53.392Z,101893.38
2022-10-29T19:48:21.246Z,101894.31
2022-10-29T19:50:56.665Z,101890.97
2022-10-29T19:53:24.509Z,101879.72
2022-10-29T19:55:52.390Z,101891.94
2022-10-29T19:58:24.448Z,101898.75
2022-10-29T20:00:52.278Z,101902.16
2022-10-29T20:03:19.817Z,101896.47
2022-10-29T20:05:47.295Z,101896.28
2022-10-29T20:08:16.313Z,101893.81
2022-10-29T20:10:44.195Z,101893.13
2022-10-29T20:13:11.476Z,101892.47
2022-10-29T20:15:39.947Z,101901.22
2022-10-29T20:18:07.332Z,101907.53
2022-10-29T20:20:35.730Z,101913.75
2022-10-29T20:23:03.365Z,101926.00
2022-10-29T20:25:30.597Z,101923.81
2022-10-29T20:28:00.512Z,101933.00
2022-10-29T20:30:28.103Z,101933.88
2022-10-29T20:32:55.558Z,101936.25
2022-10-29T20:35:23.234Z,101929.16
2022-10-29T20:37:50.361Z,101914.75
2022-10-29T20:40:17.851Z,101908.47
2022-10-29T20:42:45.474Z,101914.94
2022-10-29T20:45:12.799Z,101913.25
2022-10-29T20:47:40.296Z,101910.44
2022-10-29T20:50:08.210Z,101912.03
2022-10-29T20:52:35.195Z,101909.66
2022-10-29T20:55:02.659Z,101904.72
2022-10-29T20:57:30.401Z,101906.84
2022-10-29T20:59:59.139Z,101916.38
2022-10-29T21:02:26.712Z,101920.81
2022-10-29T21:04:54.249Z,101912.97
2022-10-29T21:07:21.575Z,101921.75
2022-10-29T21:09:48.748Z,101908.78
2022-10-29T21:12:15.651Z,101913.19
2022-10-29T21:14:42.768Z,101916.88
2022-10-29T21:17:09.648Z,101920.34
2022-10-29T21:19:36.451Z,101912.94
2022-10-29T21:22:03.616Z,101908.09
2022-10-29T21:24:30.471Z,101912.44
2022-10-29T21:26:59.170Z,101911.44
2022-10-29T21:29:26.305Z,101918.09
2022-10-29T21:31:53.100Z,101918.09
2022-10-29T21:34:20.244Z,101932.31
2022-10-29T21:36:47.517Z,101936.19
2022-10-29T21:39:15.782Z,101929.47
2022-10-29T21:41:44.180Z,101934.44
2022-10-29T21:44:13.334Z,101930.56
2022-10-29T21:46:41.330Z,101922.81
2022-10-29T21:49:08.613Z,101917.72
2022-10-29T21:51:36.936Z,101916.84
2022-10-29T21:54:04.885Z,101917.09
2022-10-29T21:56:32.256Z,101906.69
2022-10-29T21:59:00.223Z,101908.75
2022-10-29T22:01:27.768Z,101908.91
2022-10-29T22:03:55.117Z,101908.59
2022-10-29T22:06:25.202Z,101904.06
2022-10-29T22:08:53.338Z,101906.69
2022-10-29T22:11:20.588Z,101906.69
2022-10-29T22:13:48.544Z,101910.97
2022-10-29T22:16:17.490Z,101900.34
2022-10-29T22:18:44.920Z,101893.69
2022-10-29T22:21:25.374Z,101895.31
2022-10-29T22:23:54.558Z,101900.22
2022-10-29T22:26:23.503Z,101886.41
2022-10-29T22:28:50.444Z,101893.09
2022-10-29T22:31:18.541Z,101896.63
2022-10-29T22:33:47.195Z,101899.91
2022-10-29T22:36:15.422Z,101891.84
2022-10-29T22:38:42.695Z,101893.06
2022-10-29T22:41:11.580Z,101892.31
2022-10-29T22:43:38.641Z,101893.31
2022-10-29T22:46:06.695Z,101901.50
2022-10-29T22:48:33.794Z,101911.94
2022-10-29T22:51:07.600Z,101919.88
2022-10-29T22:53:35.183Z,101917.91
2022-10-29T22:56:02.332Z,101913.72
2022-10-29T22:58:29.403Z,101905.66
2022-10-29T23:01:10.043Z,101912.31
2022-10-29T23:03:38.232Z,101903.38
2022-10-29T23:06:06.784Z,101907.03
2022-10-29T23:08:33.940Z,101908.75
2022-10-29T23:11:08.733Z,101900.16
2022-10-29T23:13:36.415Z,101897.59
2022-10-29T23:16:03.347Z,101901.00
2022-10-29T23:18:30.268Z,101890.69
2022-10-29T23:20:58.335Z,101891.09
2022-10-29T23:23:25.141Z,101894.88
2022-10-29T23:25:52.602Z,101894.81
2022-10-29T23:28:19.695Z,101891.25
2022-10-29T23:30:52.338Z,101889.44
2022-10-29T23:33:19.121Z,101888.28
2022-10-29T23:35:46.242Z,101893.63
2022-10-29T23:38:13.044Z,101895.88
2022-10-29T23:40:39.899Z,101888.69
2022-10-29T23:43:07.193Z,101894.41
2022-10-29T23:45:34.011Z,101893.50
2022-10-29T23:48:01.044Z,101901.56
2022-10-29T23:50:28.252Z,101898.84
2022-10-29T23:52:55.209Z,101899.59
2022-10-29T23:55:22.298Z,101895.59
2022-10-29T23:57:49.361Z,101895.97
